createdAt,value
2022-12-08T00:01:16.679Z,72.83
2022-12-08T00:03:44.242Z,73.16
2022-12-08T00:06:38.928Z,73.01
2022-12-08T00:09:24.360Z,72.97
2022-12-08T00:11:55.793Z,73.77
2022-12-08T00:14:25.394Z,74.03
2022-12-08T00:16:52.519Z,73.87
2022-12-08T00:19:19.683Z,73.97
2022-12-08T00:21:46.636Z,77.02
2022-12-08T00:24:13.718Z,75.82
2022-12-08T00:26:40.694Z,77.54
2022-12-08T00:29:08.702Z,76.61
2022-12-08T00:31:38.058Z,76.20
2022-12-08T00:34:05.087Z,75.95
2022-12-08T00:36:32.425Z,76.13
2022-12-08T00:39:00.081Z,75.32
2022-12-08T00:41:47.294Z,75.00
2022-12-08T00:44:17.161Z,75.10
2022-12-08T00:46:44.124Z,75.32
2022-12-08T00:49:12.010Z,75.03
2022-12-08T00:51:38.884Z,74.89
2022-12-08T00:54:06.784Z,75.60
2022-12-08T00:56:34.889Z,75.79
2022-12-08T00:59:03.344Z,74.82
2022-12-08T01:01:30.777Z,75.06
2022-12-08T01:03:57.859Z,75.29
2022-12-08T01:06:24.724Z,74.90
2022-12-08T01:08:51.743Z,74.69
2022-12-08T01:11:19.743Z,73.61
2022-12-08T01:13:47.192Z,73.65
2022-12-08T01:16:26.096Z,74.30
2022-12-08T01:18:54.059Z,74.83
2022-12-08T01:21:22.059Z,74.14
2022-12-08T01:23:49.089Z,73.77
2022-12-08T01:26:17.897Z,73.86
2022-12-08T01:28:45.882Z,73.62
2022-12-08T01:31:16.939Z,72.47
2022-12-08T01:33:44.701Z,73.11
2022-12-08T01:36:25.055Z,72.78
2022-12-08T01:38:53.248Z,72.98
2022-12-08T01:41:22.608Z,72.79
2022-12-08T01:43:49.435Z,72.52
2022-12-08T01:46:16.482Z,72.66
2022-12-08T01:48:43.782Z,72.60
2022-12-08T01:51:10.803Z,72.16
2022-12-08T01:53:39.217Z,71.88
2022-12-08T01:56:09.292Z,71.97
2022-12-08T01:58:40.068Z,71.60
2022-12-08T02:01:08.512Z,71.48
2022-12-08T02:03:58.653Z,71.44
2022-12-08T02:06:28.898Z,71.45
2022-12-08T02:08:56.903Z,70.98
2022-12-08T02:11:23.799Z,70.74
2022-12-08T02:13:54.555Z,70.79
2022-12-08T02:16:21.547Z,70.05
2022-12-08T02:19:29.289Z,70.57
2022-12-08T02:22:15.724Z,69.77
2022-12-08T02:25:08.157Z,69.83
2022-12-08T02:28:04.763Z,70.26
2022-12-08T02:31:05.373Z,70.72
2022-12-08T02:33:44.071Z,70.28
2022-12-08T02:36:22.828Z,72.08
2022-12-08T02:39:21.980Z,71.49
2022-12-08T02:42:12.445Z,71.76
2022-12-08T02:44:46.162Z,73.22
2022-12-08T02:47:18.023Z,73.79
2022-12-08T02:49:45.156Z,73.45
2022-12-08T02:52:12.007Z,72.46
2022-12-08T02:54:44.415Z,72.81
2022-12-08T02:57:28.288Z,72.70
2022-12-08T03:00:11.734Z,72.90
2022-12-08T03:02:44.505Z,72.89
2022-12-08T03:05:11.512Z,72.77
2022-12-08T03:07:50.172Z,72.24
2022-12-08T03:10:22.077Z,72.68
2022-12-08T03:12:54.349Z,72.46
2022-12-08T03:15:22.782Z,72.31
2022-12-08T03:17:55.456Z,72.66
2022-12-08T03:20:25.315Z,72.45
2022-12-08T03:22:55.909Z,72.97
2022-12-08T03:25:24.872Z,72.77
2022-12-08T03:27:53.527Z,73.60
2022-12-08T03:30:20.409Z,73.05
2022-12-08T03:33:04.297Z,73.17
2022-12-08T03:35:34.643Z,73.12
2022-12-08T03:38:07.706Z,73.14
2022-12-08T03:40:35.440Z,72.91
2022-12-08T03:43:02.610Z,72.63
2022-12-08T03:45:29.927Z,72.59
2022-12-08T03:47:57.196Z,72.54
2022-12-08T03:50:24.856Z,72.78
2022-12-08T03:52:51.845Z,72.70
2022-12-08T03:55:18.768Z,72.76
2022-12-08T03:57:46.101Z,72.97
2022-12-08T04:00:15.841Z,73.08
2022-12-08T04:02:43.314Z,72.95
2022-12-08T04:05:10.827Z,72.74
2022-12-08T04:07:37.905Z,73.04
2022-12-08T04:10:05.792Z,73.47
2022-12-08T04:12:33.052Z,73.38
2022-12-08T04:15:00.111Z,73.69
2022-12-08T04:17:27.354Z,73.39
2022-12-08T04:19:54.253Z,73.65
2022-12-08T04:22:21.252Z,73.12
2022-12-08T04:24:48.491Z,73.16
2022-12-08T04:27:15.456Z,72.83
2022-12-08T04:29:42.413Z,73.09
2022-12-08T04:32:09.349Z,73.07
2022-12-08T04:34:36.404Z,73.25
2022-12-08T04:37:03.389Z,72.80
2022-12-08T04:39:30.291Z,72.92
2022-12-08T04:41:57.254Z,72.58
2022-12-08T04:44:24.230Z,73.05
2022-12-08T04:46:51.264Z,72.88
2022-12-08T04:49:18.298Z,73.05
2022-12-08T04:51:45.253Z,72.70
2022-12-08T04:54:12.209Z,72.81
2022-12-08T04:56:39.360Z,72.94
2022-12-08T04:59:06.349Z,73.03
2022-12-08T05:01:33.538Z,72.91
2022-12-08T05:04:00.627Z,73.13
2022-12-08T05:06:27.600Z,72.99
2022-12-08T05:08:55.097Z,72.67
2022-12-08T05:11:21.986Z,72.29
2022-12-08T05:13:48.845Z,71.73
2022-12-08T05:16:16.531Z,71.10
2022-12-08T05:18:43.864Z,71.09
2022-12-08T05:21:11.463Z,71.08
2022-12-08T05:23:38.735Z,70.60
2022-12-08T05:26:05.896Z,71.15
2022-12-08T05:28:41.306Z,71.43
2022-12-08T05:31:09.139Z,71.14
2022-12-08T05:33:36.056Z,70.80
2022-12-08T05:36:02.966Z,70.80
2022-12-08T05:38:29.974Z,71.05
2022-12-08T05:40:57.369Z,71.10
2022-12-08T05:43:24.306Z,70.93
2022-12-08T05:45:51.219Z,71.33
2022-12-08T05:48:18.289Z,70.83
2022-12-08T05:50:48.633Z,70.58
2022-12-08T05:53:16.653Z,70.53
2022-12-08T05:55:43.761Z,70.81
2022-12-08T05:58:14.681Z,70.97
2022-12-08T06:00:42.205Z,70.84
2022-12-08T06:03:11.638Z,70.94
2022-12-08T06:05:38.552Z,70.72
2022-12-08T06:08:05.648Z,70.93
2022-12-08T06:10:32.649Z,71.55
2022-12-08T06:12:59.606Z,71.45
2022-12-08T06:15:26.955Z,71.05
2022-12-08T06:17:53.810Z,71.52
2022-12-08T06:20:20.808Z,71.53
2022-12-08T06:22:47.754Z,71.21
2022-12-08T06:25:14.609Z,71.46
2022-12-08T06:27:41.563Z,71.24
2022-12-08T06:30:08.963Z,71.53
2022-12-08T06:32:37.610Z,71.60
2022-12-08T06:35:04.963Z,71.67
2022-12-08T06:37:32.394Z,72.10
2022-12-08T06:39:59.476Z,71.85
2022-12-08T06:42:45.017Z,72.11
2022-12-08T06:45:16.676Z,72.29
2022-12-08T06:47:44.249Z,73.02
2022-12-08T06:50:11.803Z,72.76
2022-12-08T06:52:47.210Z,73.02
2022-12-08T06:55:35.343Z,73.23
2022-12-08T06:58:01.484Z,72.86
2022-12-08T07:00:28.352Z,72.86
2022-12-08T07:02:55.349Z,73.15
2022-12-08T07:05:22.343Z,73.20
2022-12-08T07:07:49.327Z,73.44
2022-12-08T07:10:16.414Z,73.73
2022-12-08T07:12:43.304Z,74.39
2022-12-08T07:15:10.812Z,74.50
2022-12-08T07:17:37.711Z,74.40
2022-12-08T07:20:05.481Z,74.39
2022-12-08T07:22:32.795Z,74.22
2022-12-08T07:24:59.740Z,74.22
2022-12-08T07:27:26.756Z,74.42
2022-12-08T07:29:53.752Z,74.48
2022-12-08T07:32:20.646Z,74.39
2022-12-08T07:34:47.610Z,74.55
2022-12-08T07:37:14.701Z,75.04
2022-12-08T07:39:41.686Z,75.77
2022-12-08T07:42:08.681Z,75.88
2022-12-08T07:44:37.398Z,76.12
2022-12-08T07:47:04.409Z,76.73
2022-12-08T07:49:31.333Z,77.95
2022-12-08T07:51:58.207Z,78.07
2022-12-08T07:54:25.116Z,77.02
2022-12-08T07:56:52.083Z,77.70
2022-12-08T07:59:19.787Z,78.88
2022-12-08T08:01:56.233Z,79.89
2022-12-08T08:04:34.918Z,80.37
2022-12-08T08:07:01.880Z,80.04
2022-12-08T08:09:28.791Z,80.88
2022-12-08T08:12:22.396Z,80.87
2022-12-08T08:14:42.600Z,80.45
2022-12-08T08:17:09.696Z,80.11
2022-12-08T08:19:36.697Z,79.13
2022-12-08T08:22:03.667Z,79.34
2022-12-08T08:24:30.597Z,78.75
2022-12-08T08:26:57.674Z,78.44
2022-12-08T08:29:24.756Z,77.88
2022-12-08T08:31:51.681Z,77.60
2022-12-08T08:34:18.648Z,77.86
2022-12-08T08:36:45.639Z,76.50
2022-12-08T08:39:13.481Z,76.86
2022-12-08T08:41:40.536Z,76.14
2022-12-08T08:44:07.613Z,75.46
2022-12-08T08:46:34.729Z,74.77
2022-12-08T08:49:01.702Z,75.63
2022-12-08T08:51:28.775Z,75.67
2022-12-08T08:53:55.765Z,74.34
2022-12-08T08:56:23.013Z,73.18
2022-12-08T08:58:51.202Z,71.41
2022-12-08T09:01:21.304Z,71.76
2022-12-08T09:03:49.191Z,73.46
2022-12-08T09:06:16.669Z,73.90
2022-12-08T09:08:45.053Z,76.05
2022-12-08T09:11:12.267Z,76.28
2022-12-08T09:13:39.526Z,75.93
2022-12-08T09:16:08.414Z,75.86
2022-12-08T09:18:35.656Z,75.90
2022-12-08T09:21:13.295Z,77.34
2022-12-08T09:23:40.334Z,73.33
2022-12-08T09:26:07.541Z,71.34
2022-12-08T09:28:34.886Z,72.85
2022-12-08T09:31:02.200Z,72.93
2022-12-08T09:33:29.442Z,69.88
2022-12-08T09:35:56.759Z,70.87
2022-12-08T09:38:23.792Z,68.76
2022-12-08T09:40:53.232Z,67.14
2022-12-08T09:43:38.313Z,70.21
2022-12-08T09:46:07.958Z,68.58
2022-12-08T09:48:57.256Z,67.95
2022-12-08T09:51:25.902Z,67.85
2022-12-08T09:54:01.580Z,69.05
2022-12-08T09:56:33.071Z,68.89
2022-12-08T09:59:05.709Z,69.68
2022-12-08T10:01:38.499Z,70.04
2022-12-08T10:04:33.844Z,71.64
2022-12-08T10:07:04.932Z,67.83
2022-12-08T10:09:34.862Z,68.19
2022-12-08T10:12:17.950Z,69.15
2022-12-08T10:14:53.394Z,65.66
2022-12-08T10:17:25.071Z,65.22
2022-12-08T10:20:00.303Z,64.25
2022-12-08T10:22:34.084Z,64.12
2022-12-08T10:25:34.389Z,65.13
2022-12-08T10:28:01.497Z,65.11
2022-12-08T10:30:28.383Z,65.64
2022-12-08T10:32:55.540Z,65.52
2022-12-08T10:35:23.824Z,64.26
2022-12-08T10:37:58.989Z,64.51
2022-12-08T10:40:39.094Z,65.77
2022-12-08T10:43:24.848Z,64.34
2022-12-08T10:45:51.960Z,63.68
2022-12-08T10:48:22.777Z,62.83
2022-12-08T10:50:52.865Z,65.18
2022-12-08T10:53:31.891Z,64.01
2022-12-08T10:56:01.944Z,65.32
2022-12-08T10:58:43.467Z,65.87
2022-12-08T11:01:26.747Z,63.15
2022-12-08T11:04:05.727Z,63.13
2022-12-08T11:06:37.782Z,64.33
2022-12-08T11:09:22.305Z,64.24
2022-12-08T11:11:59.606Z,64.94
2022-12-08T11:14:32.545Z,64.37
2022-12-08T11:17:05.274Z,65.23
2022-12-08T11:19:38.261Z,65.19
2022-12-08T11:22:38.004Z,65.18
2022-12-08T11:25:08.000Z,65.31
2022-12-08T11:27:37.272Z,64.99
2022-12-08T11:30:15.101Z,64.96
2022-12-08T11:32:45.011Z,65.04
2022-12-08T11:35:27.257Z,64.56
2022-12-08T11:38:08.055Z,65.39
2022-12-08T11:40:44.894Z,66.40
2022-12-08T11:43:36.709Z,65.05
2022-12-08T11:46:15.734Z,66.05
2022-12-08T11:49:11.282Z,65.14
2022-12-08T11:51:48.379Z,66.18
2022-12-08T11:54:26.879Z,67.15
2022-12-08T11:56:58.800Z,65.95
2022-12-08T11:59:34.862Z,66.63
2022-12-08T12:02:04.551Z,67.45
2022-12-08T12:04:39.871Z,67.63
2022-12-08T12:07:12.715Z,67.48
2022-12-08T12:09:59.838Z,67.66
2022-12-08T12:12:43.091Z,66.96
2022-12-08T12:15:30.729Z,67.02
2022-12-08T12:18:02.401Z,67.31
2022-12-08T12:20:33.713Z,66.38
2022-12-08T12:23:07.497Z,66.27
2022-12-08T12:25:37.053Z,66.62
2022-12-08T12:28:09.225Z,66.63
2022-12-08T12:30:59.242Z,67.33
2022-12-08T12:33:27.372Z,67.52
2022-12-08T12:35:58.114Z,68.12
2022-12-08T12:38:54.167Z,68.13
2022-12-08T12:41:52.715Z,68.49
2022-12-08T12:44:19.580Z,68.14
2022-12-08T12:46:46.513Z,69.72
2022-12-08T12:49:38.181Z,69.62
2022-12-08T12:52:18.226Z,69.65
2022-12-08T12:55:10.835Z,68.96
2022-12-08T12:57:37.807Z,68.90
2022-12-08T13:00:04.710Z,69.46
2022-12-08T13:02:45.438Z,69.37
2022-12-08T13:05:18.638Z,69.70
2022-12-08T13:07:52.539Z,69.65
2022-12-08T13:10:24.073Z,69.44
2022-12-08T13:13:05.608Z,70.30
2022-12-08T13:15:41.488Z,69.38
2022-12-08T13:18:23.995Z,71.53
2022-12-08T13:20:55.182Z,70.79
2022-12-08T13:23:42.791Z,71.00
2022-12-08T13:26:17.367Z,69.98
2022-12-08T13:29:00.085Z,70.88
2022-12-08T13:31:37.520Z,70.86
2022-12-08T13:34:07.085Z,70.91
2022-12-08T13:36:39.045Z,70.88
2022-12-08T13:39:07.225Z,70.69
2022-12-08T13:41:44.812Z,71.33
2022-12-08T13:47:33.499Z,70.29
2022-12-08T13:53:49.676Z,70.96
2022-12-08T13:56:59.458Z,71.21
2022-12-08T13:58:47.742Z,70.94
2022-12-08T14:01:22.420Z,70.43
2022-12-08T14:04:12.897Z,71.20
2022-12-08T14:06:38.921Z,70.85
2022-12-08T14:09:11.062Z,71.13
2022-12-08T14:11:45.239Z,71.71
2022-12-08T14:14:46.046Z,72.55
2022-12-08T14:17:15.445Z,72.36
2022-12-08T14:19:55.801Z,72.65
2022-12-08T14:22:23.899Z,72.10
2022-12-08T14:24:54.917Z,71.61
2022-12-08T14:27:24.188Z,72.51
2022-12-08T14:30:00.284Z,72.81
2022-12-08T14:32:34.347Z,72.50
2022-12-08T14:35:07.761Z,73.38
2022-12-08T14:37:38.620Z,73.69
2022-12-08T14:40:10.637Z,72.87
2022-12-08T14:42:46.644Z,72.89
2022-12-08T14:45:16.249Z,72.42
2022-12-08T14:47:43.913Z,72.41
2022-12-08T14:50:35.716Z,72.31
2022-12-08T14:53:03.502Z,71.96
2022-12-08T14:55:37.801Z,71.80
2022-12-08T14:58:05.257Z,72.12
2022-12-08T15:00:33.494Z,72.11
2022-12-08T15:03:07.926Z,71.70
2022-12-08T15:05:35.194Z,71.16
2022-12-08T15:08:04.070Z,71.18
2022-12-08T15:10:35.606Z,72.00
2022-12-08T15:13:05.578Z,71.72
2022-12-08T15:15:46.129Z,71.37
2022-12-08T15:18:38.029Z,70.39
2022-12-08T15:21:09.224Z,70.30
2022-12-08T15:23:50.150Z,70.27
2022-12-08T15:26:28.223Z,70.53
2022-12-08T15:28:55.709Z,70.49
2022-12-08T15:31:22.830Z,70.99
2022-12-08T15:33:49.900Z,70.71
2022-12-08T15:36:16.896Z,71.21
2022-12-08T15:38:43.854Z,70.85
2022-12-08T15:41:14.947Z,70.70
2022-12-08T15:43:42.685Z,71.23
2022-12-08T15:46:09.726Z,71.52
2022-12-08T15:48:37.901Z,71.78
2022-12-08T15:51:04.871Z,71.21
2022-12-08T15:53:31.822Z,71.66
2022-12-08T15:58:56.190Z,71.12
2022-12-08T16:01:24.672Z,71.06
2022-12-08T16:09:36.263Z,73.16
2022-12-08T16:12:22.254Z,71.32
2022-12-08T16:17:37.752Z,70.16
2022-12-08T16:20:17.006Z,70.49
2022-12-08T16:22:59.280Z,72.62
2022-12-08T16:25:46.068Z,71.37
2022-12-08T16:28:52.189Z,71.58
2022-12-08T16:31:08.840Z,71.28
2022-12-08T16:33:38.724Z,70.79
2022-12-08T16:36:05.829Z,71.74
2022-12-08T16:38:33.043Z,72.05
2022-12-08T16:41:18.836Z,70.49
2022-12-08T16:43:45.739Z,70.49
2022-12-08T16:46:23.258Z,71.28
2022-12-08T16:48:50.314Z,71.71
2022-12-08T16:51:23.431Z,72.06
2022-12-08T16:53:53.679Z,72.96
2022-12-08T16:56:24.140Z,72.37
2022-12-08T16:58:55.894Z,71.87
2022-12-08T17:01:23.925Z,72.10
2022-12-08T17:04:14.392Z,72.92
2022-12-08T17:06:37.965Z,73.08
2022-12-08T17:09:04.978Z,72.79
2022-12-08T17:11:36.236Z,73.11
2022-12-08T17:14:06.202Z,73.20
2022-12-08T17:16:33.194Z,73.61
2022-12-08T17:19:00.241Z,73.66
2022-12-08T17:21:27.204Z,73.06
2022-12-08T17:23:54.845Z,73.20
2022-12-08T17:26:21.821Z,73.05
2022-12-08T17:29:04.018Z,73.11
2022-12-08T17:31:32.621Z,73.04
2022-12-08T17:34:04.848Z,73.00
2022-12-08T17:36:32.223Z,72.37
2022-12-08T17:39:00.551Z,71.75
2022-12-08T17:41:28.213Z,71.97
2022-12-08T17:43:55.314Z,71.35
2022-12-08T17:46:23.357Z,70.97
2022-12-08T17:48:50.504Z,70.39
2022-12-08T17:51:17.871Z,70.91
2022-12-08T17:53:45.061Z,70.89
2022-12-08T17:56:20.726Z,71.55
2022-12-08T17:58:52.852Z,71.65
2022-12-08T18:01:23.347Z,71.71
2022-12-08T18:03:50.899Z,72.44
2022-12-08T18:06:17.930Z,72.28
2022-12-08T18:08:45.175Z,72.81
2022-12-08T18:11:18.737Z,72.29
2022-12-08T18:13:47.476Z,73.42
2022-12-08T18:16:15.654Z,73.40
2022-12-08T18:18:42.648Z,73.86
2022-12-08T18:21:10.084Z,73.94
2022-12-08T18:23:38.081Z,73.46
2022-12-08T18:26:09.909Z,73.19
2022-12-08T18:28:38.314Z,74.37
2022-12-08T18:31:14.797Z,74.61
2022-12-08T18:33:43.582Z,74.93
2022-12-08T18:36:14.149Z,75.21
2022-12-08T18:38:41.057Z,74.88
2022-12-08T18:41:09.914Z,74.60
2022-12-08T18:43:37.946Z,74.32
2022-12-08T18:46:09.565Z,74.79
2022-12-08T18:48:38.852Z,72.26
2022-12-08T18:51:13.239Z,71.68
2022-12-08T18:53:40.751Z,72.05
2022-12-08T18:56:08.852Z,71.86
2022-12-08T18:58:35.978Z,71.54
2022-12-08T19:01:03.057Z,72.44
2022-12-08T19:03:30.053Z,73.45
2022-12-08T19:06:07.427Z,73.84
2022-12-08T19:08:34.412Z,73.20
2022-12-08T19:11:01.716Z,73.14
2022-12-08T19:13:28.862Z,73.06
2022-12-08T19:15:56.000Z,72.86
2022-12-08T19:18:23.104Z,72.42
2022-12-08T19:20:50.231Z,72.45
2022-12-08T19:23:17.173Z,72.42
2022-12-08T19:25:44.154Z,72.42
2022-12-08T19:28:11.092Z,72.21
2022-12-08T19:30:38.162Z,72.00
2022-12-08T19:33:05.171Z,71.29
2022-12-08T19:35:32.149Z,71.32
2022-12-08T19:37:59.092Z,70.69
2022-12-08T19:40:44.581Z,69.82
2022-12-08T19:43:37.464Z,71.84
2022-12-08T19:46:04.639Z,72.72
2022-12-08T19:48:31.711Z,72.74
2022-12-08T19:50:59.072Z,72.44
2022-12-08T19:53:26.333Z,71.81
2022-12-08T19:55:53.388Z,72.34
2022-12-08T19:58:20.549Z,72.20
2022-12-08T20:00:48.085Z,72.94
2022-12-08T20:03:20.464Z,72.48
2022-12-08T20:05:49.761Z,71.82
2022-12-08T20:08:17.219Z,73.05
2022-12-08T20:10:45.240Z,73.10
2022-12-08T20:13:31.537Z,72.75
2022-12-08T20:15:58.800Z,72.77
2022-12-08T20:18:25.918Z,71.97
2022-12-08T20:20:53.096Z,72.05
2022-12-08T20:23:20.014Z,71.51
2022-12-08T20:25:48.001Z,71.90
2022-12-08T20:28:15.133Z,72.53
2022-12-08T20:30:42.965Z,72.80
2022-12-08T20:33:13.765Z,72.41
2022-12-08T20:35:41.599Z,73.00
2022-12-08T20:38:08.754Z,72.81
2022-12-08T20:40:35.836Z,73.10
2022-12-08T20:43:02.953Z,72.79
2022-12-08T20:45:30.015Z,72.78
2022-12-08T20:47:56.966Z,72.99
2022-12-08T20:50:23.931Z,72.33
2022-12-08T20:52:50.957Z,72.31
2022-12-08T20:55:18.256Z,72.53
2022-12-08T20:57:45.257Z,72.54
2022-12-08T21:00:12.905Z,72.56
2022-12-08T21:02:46.925Z,72.58
2022-12-08T21:05:16.359Z,72.71
2022-12-08T21:07:43.640Z,72.24
2022-12-08T21:10:11.006Z,72.44
2022-12-08T21:12:38.298Z,72.04
2022-12-08T21:15:07.696Z,71.49
2022-12-08T21:17:34.918Z,72.03
2022-12-08T21:20:02.458Z,71.55
2022-12-08T21:22:29.471Z,70.48
2022-12-08T21:24:56.624Z,70.62
2022-12-08T21:27:23.700Z,70.81
2022-12-08T21:29:50.590Z,71.15
2022-12-08T21:32:17.661Z,70.31
2022-12-08T21:34:45.595Z,70.04
2022-12-08T21:37:12.687Z,70.44
2022-12-08T21:39:39.747Z,69.88
2022-12-08T21:42:30.791Z,69.95
2022-12-08T21:45:01.319Z,70.51
2022-12-08T21:47:28.520Z,70.68
2022-12-08T21:49:55.711Z,70.53
2022-12-08T21:52:23.031Z,70.50
2022-12-08T21:54:50.030Z,70.51
2022-12-08T21:57:17.044Z,70.08
2022-12-08T21:59:44.102Z,70.08
2022-12-08T22:02:19.558Z,70.26
2022-12-08T22:04:50.261Z,70.09
2022-12-08T22:07:17.743Z,69.99
2022-12-08T22:09:44.799Z,69.62
2022-12-08T22:12:12.342Z,69.84
2022-12-08T22:14:40.813Z,69.81
2022-12-08T22:17:08.057Z,69.59
2022-12-08T22:19:35.482Z,69.64
2022-12-08T22:22:03.195Z,69.96
2022-12-08T22:24:31.283Z,68.98
2022-12-08T22:26:58.323Z,69.04
2022-12-08T22:29:25.335Z,69.78
2022-12-08T22:31:52.333Z,69.79
2022-12-08T22:34:19.529Z,69.49
2022-12-08T22:36:46.513Z,69.27
2022-12-08T22:39:13.431Z,69.09
2022-12-08T22:41:40.613Z,68.75
2022-12-08T22:44:08.080Z,68.59
2022-12-08T22:46:35.190Z,68.89
2022-12-08T22:49:02.623Z,69.46
2022-12-08T22:51:29.699Z,69.26
2022-12-08T22:53:56.822Z,70.21
2022-12-08T22:56:23.788Z,70.29
2022-12-08T22:58:51.657Z,70.37
2022-12-08T23:01:31.245Z,70.14
2022-12-08T23:04:01.387Z,70.47
2022-12-08T23:06:30.316Z,70.25
2022-12-08T23:08:57.903Z,70.26
2022-12-08T23:11:28.048Z,70.13
2022-12-08T23:13:56.409Z,70.19
2022-12-08T23:16:23.535Z,70.20
2022-12-08T23:18:50.943Z,69.35
2022-12-08T23:21:19.576Z,70.47
2022-12-08T23:23:46.950Z,70.80
2022-12-08T23:26:27.971Z,70.33
2022-12-08T23:28:56.382Z,70.55
2022-12-08T23:31:24.205Z,70.56
2022-12-08T23:33:51.865Z,70.75
2022-12-08T23:36:21.124Z,70.27
2022-12-08T23:38:48.524Z,70.48
2022-12-08T23:41:16.558Z,70.60
2022-12-08T23:43:51.879Z,70.67
2022-12-08T23:46:21.751Z,71.45
2022-12-08T23:48:49.725Z,71.45
2022-12-08T23:51:17.167Z,71.29
2022-12-08T23:53:44.564Z,71.41
2022-12-08T23:56:15.561Z,71.69
2022-12-08T23:58:44.112Z,71.56
